sensor_id;sensor_type;location;lat;lon;timestamp;P1;durP1;ratioP1;P2;durP2;ratioP2
18776;SDS011;9517;51.174;4.160;2023-05-07T00:01:14;41.10;;;22.57;;
18776;SDS011;9517;51.174;4.160;2023-05-07T00:03:42;37.67;;;23.53;;
18776;SDS011;9517;51.174;4.160;2023-05-07T00:06:09;29.27;;;18.47;;
18776;SDS011;9517;51.174;4.160;2023-05-07T00:08:37;38.17;;;23.73;;
18776;SDS011;9517;51.174;4.160;2023-05-07T00:11:05;39.83;;;23.57;;
18776;SDS011;9517;51.174;4.160;2023-05-07T00:13:33;33.10;;;20.10;;
18776;SDS011;9517;51.174;4.160;2023-05-07T00:16:02;41.87;;;26.13;;
18776;SDS011;9517;51.174;4.160;2023-05-07T00:18:29;36.27;;;18.77;;
18776;SDS011;9517;51.174;4.160;2023-05-07T00:20:57;31.73;;;17.37;;
18776;SDS011;9517;51.174;4.160;2023-05-07T00:23:27;35.93;;;19.97;;
18776;SDS011;9517;51.174;4.160;2023-05-07T00:25:55;25.87;;;14.67;;
18776;SDS011;9517;51.174;4.160;2023-05-07T00:28:23;27.83;;;15.20;;
18776;SDS011;9517;51.174;4.160;2023-05-07T00:30:50;28.80;;;16.13;;
18776;SDS011;9517;51.174;4.160;2023-05-07T00:33:22;42.17;;;22.60;;
18776;SDS011;9517;51.174;4.160;2023-05-07T00:35:49;43.50;;;22.23;;
18776;SDS011;9517;51.174;4.160;2023-05-07T00:38:16;53.30;;;25.00;;
18776;SDS011;9517;51.174;4.160;2023-05-07T00:40:43;47.00;;;23.70;;
18776;SDS011;9517;51.174;4.160;2023-05-07T00:43:11;45.57;;;22.73;;
18776;SDS011;9517;51.174;4.160;2023-05-07T00:45:38;47.70;;;22.70;;
18776;SDS011;9517;51.174;4.160;2023-05-07T00:48:06;37.43;;;20.23;;
18776;SDS011;9517;51.174;4.160;2023-05-07T00:50:35;47.17;;;21.50;;
18776;SDS011;9517;51.174;4.160;2023-05-07T00:53:02;61.20;;;28.10;;
18776;SDS011;9517;51.174;4.160;2023-05-07T00:55:32;66.53;;;30.27;;
18776;SDS011;9517;51.174;4.160;2023-05-07T00:58:00;43.13;;;21.20;;
18776;SDS011;9517;51.174;4.160;2023-05-07T01:00:27;73.97;;;34.27;;
18776;SDS011;9517;51.174;4.160;2023-05-07T01:02:55;59.43;;;27.83;;
18776;SDS011;9517;51.174;4.160;2023-05-07T01:05:22;49.53;;;25.57;;
18776;SDS011;9517;51.174;4.160;2023-05-07T01:07:52;38.87;;;22.53;;
18776;SDS011;9517;51.174;4.160;2023-05-07T01:10:21;31.13;;;16.90;;
18776;SDS011;9517;51.174;4.160;2023-05-07T01:12:50;33.43;;;16.63;;
18776;SDS011;9517;51.174;4.160;2023-05-07T01:15:18;40.50;;;21.70;;
18776;SDS011;9517;51.174;4.160;2023-05-07T01:17:45;41.17;;;21.67;;
18776;SDS011;9517;51.174;4.160;2023-05-07T01:20:13;31.50;;;17.93;;
18776;SDS011;9517;51.174;4.160;2023-05-07T01:22:42;30.57;;;17.80;;
18776;SDS011;9517;51.174;4.160;2023-05-07T01:25:10;32.77;;;20.20;;
18776;SDS011;9517;51.174;4.160;2023-05-07T01:27:38;31.43;;;17.27;;
18776;SDS011;9517;51.174;4.160;2023-05-07T01:30:06;30.27;;;18.57;;
18776;SDS011;9517;51.174;4.160;2023-05-07T01:32:36;27.87;;;15.00;;
18776;SDS011;9517;51.174;4.160;2023-05-07T01:35:07;24.87;;;14.80;;
18776;SDS011;9517;51.174;4.160;2023-05-07T01:37:38;26.40;;;14.83;;
18776;SDS011;9517;51.174;4.160;2023-05-07T01:40:08;24.07;;;15.53;;
18776;SDS011;9517;51.174;4.160;2023-05-07T01:42:36;27.57;;;16.70;;
18776;SDS011;9517;51.174;4.160;2023-05-07T01:45:05;20.93;;;13.53;;
18776;SDS011;9517;51.174;4.160;2023-05-07T01:47:33;27.70;;;15.20;;
18776;SDS011;9517;51.174;4.160;2023-05-07T01:50:02;23.80;;;15.20;;
18776;SDS011;9517;51.174;4.160;2023-05-07T01:52:31;29.57;;;16.27;;
18776;SDS011;9517;51.174;4.160;2023-05-07T01:54:58;26.07;;;16.47;;
18776;SDS011;9517;51.174;4.160;2023-05-07T01:57:27;29.27;;;16.67;;
18776;SDS011;9517;51.174;4.160;2023-05-07T01:59:55;29.13;;;16.00;;
18776;SDS011;9517;51.174;4.160;2023-05-07T02:02:22;31.73;;;16.13;;
18776;SDS011;9517;51.174;4.160;2023-05-07T02:04:49;25.67;;;15.53;;
18776;SDS011;9517;51.174;4.160;2023-05-07T02:07:17;25.97;;;14.70;;
18776;SDS011;9517;51.174;4.160;2023-05-07T02:09:44;27.53;;;16.63;;
18776;SDS011;9517;51.174;4.160;2023-05-07T02:12:12;26.57;;;17.67;;
18776;SDS011;9517;51.174;4.160;2023-05-07T02:14:41;24.27;;;15.53;;
18776;SDS011;9517;51.174;4.160;2023-05-07T02:17:08;27.77;;;17.57;;
18776;SDS011;9517;51.174;4.160;2023-05-07T02:19:36;29.20;;;16.27;;
18776;SDS011;9517;51.174;4.160;2023-05-07T02:22:03;25.20;;;16.07;;
18776;SDS011;9517;51.174;4.160;2023-05-07T02:24:30;25.63;;;16.20;;
18776;SDS011;9517;51.174;4.160;2023-05-07T02:26:58;27.03;;;17.67;;
18776;SDS011;9517;51.174;4.160;2023-05-07T02:29:32;25.03;;;15.93;;
18776;SDS011;9517;51.174;4.160;2023-05-07T02:36:17;28.57;;;17.70;;
18776;SDS011;9517;51.174;4.160;2023-05-07T02:39:02;31.93;;;19.07;;
18776;SDS011;9517;51.174;4.160;2023-05-07T02:42:33;32.23;;;19.37;;
18776;SDS011;9517;51.174;4.160;2023-05-07T02:45:41;30.53;;;18.47;;
18776;SDS011;9517;51.174;4.160;2023-05-07T02:48:40;30.30;;;18.77;;
18776;SDS011;9517;51.174;4.160;2023-05-07T02:51:08;32.07;;;19.20;;
18776;SDS011;9517;51.174;4.160;2023-05-07T02:53:37;35.40;;;19.70;;
18776;SDS011;9517;51.174;4.160;2023-05-07T02:56:04;31.47;;;20.00;;
18776;SDS011;9517;51.174;4.160;2023-05-07T02:58:32;28.23;;;19.80;;
18776;SDS011;9517;51.174;4.160;2023-05-07T03:00:59;33.93;;;20.20;;
18776;SDS011;9517;51.174;4.160;2023-05-07T03:03:29;33.67;;;21.27;;
18776;SDS011;9517;51.174;4.160;2023-05-07T03:05:59;32.17;;;19.53;;
18776;SDS011;9517;51.174;4.160;2023-05-07T03:08:27;34.40;;;20.10;;
18776;SDS011;9517;51.174;4.160;2023-05-07T03:10:56;31.27;;;20.00;;
18776;SDS011;9517;51.174;4.160;2023-05-07T03:13:23;31.33;;;19.90;;
18776;SDS011;9517;51.174;4.160;2023-05-07T03:15:51;30.23;;;19.93;;
18776;SDS011;9517;51.174;4.160;2023-05-07T03:18:20;30.30;;;18.00;;
18776;SDS011;9517;51.174;4.160;2023-05-07T03:20:47;28.93;;;19.50;;
18776;SDS011;9517;51.174;4.160;2023-05-07T03:23:15;30.33;;;18.83;;
18776;SDS011;9517;51.174;4.160;2023-05-07T03:25:43;30.27;;;19.03;;
18776;SDS011;9517;51.174;4.160;2023-05-07T03:28:11;30.97;;;19.87;;
18776;SDS011;9517;51.174;4.160;2023-05-07T03:30:39;30.93;;;20.60;;
18776;SDS011;9517;51.174;4.160;2023-05-07T03:33:06;31.37;;;19.97;;
18776;SDS011;9517;51.174;4.160;2023-05-07T03:35:33;29.37;;;19.60;;
18776;SDS011;9517;51.174;4.160;2023-05-07T03:38:01;30.73;;;19.47;;
18776;SDS011;9517;51.174;4.160;2023-05-07T03:40:28;32.77;;;20.23;;
18776;SDS011;9517;51.174;4.160;2023-05-07T03:42:55;33.23;;;20.33;;
18776;SDS011;9517;51.174;4.160;2023-05-07T03:45:24;29.77;;;19.73;;
18776;SDS011;9517;51.174;4.160;2023-05-07T03:47:51;35.20;;;20.20;;
18776;SDS011;9517;51.174;4.160;2023-05-07T03:50:21;31.27;;;19.87;;
18776;SDS011;9517;51.174;4.160;2023-05-07T03:52:49;32.63;;;20.77;;
18776;SDS011;9517;51.174;4.160;2023-05-07T03:55:16;31.03;;;20.63;;
18776;SDS011;9517;51.174;4.160;2023-05-07T03:57:44;30.00;;;21.07;;
18776;SDS011;9517;51.174;4.160;2023-05-07T04:00:12;32.23;;;19.43;;
18776;SDS011;9517;51.174;4.160;2023-05-07T04:02:42;32.07;;;20.93;;
18776;SDS011;9517;51.174;4.160;2023-05-07T04:05:09;31.30;;;20.27;;
18776;SDS011;9517;51.174;4.160;2023-05-07T04:07:37;28.17;;;18.80;;
18776;SDS011;9517;51.174;4.160;2023-05-07T04:10:04;31.90;;;20.60;;
18776;SDS011;9517;51.174;4.160;2023-05-07T04:12:32;27.67;;;20.37;;
18776;SDS011;9517;51.174;4.160;2023-05-07T04:15:00;34.40;;;21.73;;
18776;SDS011;9517;51.174;4.160;2023-05-07T04:17:28;28.97;;;20.30;;
18776;SDS011;9517;51.174;4.160;2023-05-07T04:19:57;30.00;;;21.57;;
18776;SDS011;9517;51.174;4.160;2023-05-07T04:22:24;32.33;;;21.90;;
18776;SDS011;9517;51.174;4.160;2023-05-07T04:24:52;28.07;;;21.10;;
18776;SDS011;9517;51.174;4.160;2023-05-07T04:27:19;30.83;;;22.17;;
18776;SDS011;9517;51.174;4.160;2023-05-07T04:29:47;30.47;;;20.77;;
18776;SDS011;9517;51.174;4.160;2023-05-07T04:32:14;31.97;;;22.37;;
18776;SDS011;9517;51.174;4.160;2023-05-07T04:34:42;29.60;;;20.67;;
18776;SDS011;9517;51.174;4.160;2023-05-07T04:37:12;28.83;;;21.27;;
18776;SDS011;9517;51.174;4.160;2023-05-07T04:39:39;28.07;;;20.73;;
18776;SDS011;9517;51.174;4.160;2023-05-07T04:42:06;32.93;;;22.10;;
18776;SDS011;9517;51.174;4.160;2023-05-07T04:44:35;32.60;;;20.87;;
18776;SDS011;9517;51.174;4.160;2023-05-07T04:47:02;28.63;;;21.53;;
18776;SDS011;9517;51.174;4.160;2023-05-07T04:49:30;31.13;;;21.33;;
18776;SDS011;9517;51.174;4.160;2023-05-07T04:51:57;32.83;;;21.37;;
18776;SDS011;9517;51.174;4.160;2023-05-07T04:54:26;30.70;;;21.13;;
18776;SDS011;9517;51.174;4.160;2023-05-07T04:56:54;29.00;;;19.93;;
18776;SDS011;9517;51.174;4.160;2023-05-07T04:59:21;27.90;;;20.20;;
18776;SDS011;9517;51.174;4.160;2023-05-07T05:01:49;29.47;;;19.93;;
18776;SDS011;9517;51.174;4.160;2023-05-07T05:04:16;29.30;;;20.60;;
18776;SDS011;9517;51.174;4.160;2023-05-07T05:06:43;29.23;;;20.73;;
18776;SDS011;9517;51.174;4.160;2023-05-07T05:09:13;28.03;;;20.10;;
18776;SDS011;9517;51.174;4.160;2023-05-07T05:11:43;31.67;;;20.80;;
18776;SDS011;9517;51.174;4.160;2023-05-07T05:14:11;27.43;;;19.67;;
18776;SDS011;9517;51.174;4.160;2023-05-07T05:16:38;27.90;;;20.07;;
18776;SDS011;9517;51.174;4.160;2023-05-07T05:19:06;29.07;;;19.17;;
18776;SDS011;9517;51.174;4.160;2023-05-07T05:21:33;29.40;;;20.03;;
18776;SDS011;9517;51.174;4.160;2023-05-07T05:24:00;25.87;;;18.83;;
18776;SDS011;9517;51.174;4.160;2023-05-07T05:26:28;27.47;;;20.23;;
18776;SDS011;9517;51.174;4.160;2023-05-07T05:28:57;28.57;;;19.80;;
18776;SDS011;9517;51.174;4.160;2023-05-07T05:31:24;30.90;;;19.77;;
18776;SDS011;9517;51.174;4.160;2023-05-07T05:33:52;27.37;;;19.10;;
18776;SDS011;9517;51.174;4.160;2023-05-07T05:36:22;28.93;;;18.70;;
18776;SDS011;9517;51.174;4.160;2023-05-07T05:38:49;24.67;;;18.13;;
18776;SDS011;9517;51.174;4.160;2023-05-07T05:41:17;27.80;;;19.10;;
18776;SDS011;9517;51.174;4.160;2023-05-07T05:43:44;25.17;;;18.33;;
18776;SDS011;9517;51.174;4.160;2023-05-07T05:46:13;26.73;;;17.93;;
18776;SDS011;9517;51.174;4.160;2023-05-07T05:48:42;29.53;;;18.83;;
18776;SDS011;9517;51.174;4.160;2023-05-07T05:51:09;25.60;;;17.63;;
18776;SDS011;9517;51.174;4.160;2023-05-07T05:53:36;26.07;;;17.77;;
18776;SDS011;9517;51.174;4.160;2023-05-07T05:56:04;26.93;;;17.50;;
18776;SDS011;9517;51.174;4.160;2023-05-07T05:58:31;26.43;;;18.80;;
18776;SDS011;9517;51.174;4.160;2023-05-07T06:00:58;29.60;;;17.80;;
18776;SDS011;9517;51.174;4.160;2023-05-07T06:03:29;26.50;;;18.20;;
18776;SDS011;9517;51.174;4.160;2023-05-07T06:05:57;24.80;;;18.23;;
18776;SDS011;9517;51.174;4.160;2023-05-07T06:08:25;32.20;;;18.63;;
18776;SDS011;9517;51.174;4.160;2023-05-07T06:10:52;27.47;;;19.27;;
18776;SDS011;9517;51.174;4.160;2023-05-07T06:13:19;28.57;;;20.43;;
18776;SDS011;9517;51.174;4.160;2023-05-07T06:15:46;33.57;;;19.50;;
18776;SDS011;9517;51.174;4.160;2023-05-07T06:18:13;26.80;;;19.73;;
18776;SDS011;9517;51.174;4.160;2023-05-07T06:20:42;27.23;;;19.27;;
18776;SDS011;9517;51.174;4.160;2023-05-07T06:23:09;27.63;;;19.40;;
18776;SDS011;9517;51.174;4.160;2023-05-07T06:25:36;26.90;;;19.03;;
18776;SDS011;9517;51.174;4.160;2023-05-07T06:28:03;30.90;;;19.23;;
18776;SDS011;9517;51.174;4.160;2023-05-07T06:30:30;28.83;;;19.70;;
18776;SDS011;9517;51.174;4.160;2023-05-07T06:32:57;28.73;;;20.33;;
18776;SDS011;9517;51.174;4.160;2023-05-07T06:35:24;27.77;;;20.47;;
18776;SDS011;9517;51.174;4.160;2023-05-07T06:37:52;29.80;;;18.40;;
18776;SDS011;9517;51.174;4.160;2023-05-07T06:40:20;25.67;;;18.27;;
18776;SDS011;9517;51.174;4.160;2023-05-07T06:42:47;23.43;;;15.03;;
18776;SDS011;9517;51.174;4.160;2023-05-07T06:45:14;24.67;;;12.50;;
18776;SDS011;9517;51.174;4.160;2023-05-07T06:47:41;23.67;;;13.63;;
18776;SDS011;9517;51.174;4.160;2023-05-07T06:50:08;25.93;;;13.60;;
18776;SDS011;9517;51.174;4.160;2023-05-07T06:52:36;24.53;;;13.70;;
18776;SDS011;9517;51.174;4.160;2023-05-07T06:55:05;25.40;;;12.93;;
18776;SDS011;9517;51.174;4.160;2023-05-07T06:57:33;20.57;;;12.30;;
18776;SDS011;9517;51.174;4.160;2023-05-07T07:00:00;21.70;;;11.47;;
18776;SDS011;9517;51.174;4.160;2023-05-07T07:02:27;22.23;;;11.03;;
18776;SDS011;9517;51.174;4.160;2023-05-07T07:04:54;22.07;;;10.13;;
18776;SDS011;9517;51.174;4.160;2023-05-07T07:07:21;21.80;;;11.47;;
18776;SDS011;9517;51.174;4.160;2023-05-07T07:09:49;24.33;;;10.87;;
18776;SDS011;9517;51.174;4.160;2023-05-07T07:12:18;21.83;;;10.70;;
18776;SDS011;9517;51.174;4.160;2023-05-07T07:14:45;25.37;;;10.60;;
18776;SDS011;9517;51.174;4.160;2023-05-07T07:17:12;21.63;;;10.30;;
18776;SDS011;9517;51.174;4.160;2023-05-07T07:19:39;21.47;;;10.20;;
18776;SDS011;9517;51.174;4.160;2023-05-07T07:22:06;21.10;;;10.40;;
18776;SDS011;9517;51.174;4.160;2023-05-07T07:24:33;20.67;;;10.70;;
18776;SDS011;9517;51.174;4.160;2023-05-07T07:27:00;19.20;;;10.73;;
18776;SDS011;9517;51.174;4.160;2023-05-07T07:29:29;19.87;;;10.63;;
18776;SDS011;9517;51.174;4.160;2023-05-07T07:31:56;22.43;;;10.70;;
18776;SDS011;9517;51.174;4.160;2023-05-07T07:34:23;18.83;;;10.00;;
18776;SDS011;9517;51.174;4.160;2023-05-07T07:36:50;24.03;;;10.00;;
18776;SDS011;9517;51.174;4.160;2023-05-07T07:39:17;20.77;;;10.50;;
18776;SDS011;9517;51.174;4.160;2023-05-07T07:41:44;20.63;;;10.53;;
18776;SDS011;9517;51.174;4.160;2023-05-07T07:44:11;20.40;;;9.97;;
18776;SDS011;9517;51.174;4.160;2023-05-07T07:46:40;19.43;;;10.27;;
18776;SDS011;9517;51.174;4.160;2023-05-07T07:49:07;24.63;;;11.17;;
18776;SDS011;9517;51.174;4.160;2023-05-07T07:51:34;22.10;;;11.23;;
18776;SDS011;9517;51.174;4.160;2023-05-07T07:54:02;20.37;;;10.40;;
18776;SDS011;9517;51.174;4.160;2023-05-07T07:56:29;21.00;;;12.07;;
18776;SDS011;9517;51.174;4.160;2023-05-07T07:58:56;23.33;;;11.63;;
18776;SDS011;9517;51.174;4.160;2023-05-07T08:01:23;21.73;;;10.13;;
18776;SDS011;9517;51.174;4.160;2023-05-07T08:03:52;20.13;;;10.73;;
18776;SDS011;9517;51.174;4.160;2023-05-07T08:06:19;22.73;;;10.80;;
18776;SDS011;9517;51.174;4.160;2023-05-07T08:08:46;19.17;;;9.30;;
18776;SDS011;9517;51.174;4.160;2023-05-07T08:11:13;17.63;;;7.63;;
18776;SDS011;9517;51.174;4.160;2023-05-07T08:13:41;15.03;;;6.87;;
18776;SDS011;9517;51.174;4.160;2023-05-07T08:16:08;14.73;;;6.27;;
18776;SDS011;9517;51.174;4.160;2023-05-07T08:18:35;17.43;;;6.83;;
18776;SDS011;9517;51.174;4.160;2023-05-07T08:21:04;17.63;;;7.00;;
18776;SDS011;9517;51.174;4.160;2023-05-07T08:23:31;18.57;;;6.93;;
18776;SDS011;9517;51.174;4.160;2023-05-07T08:25:59;16.67;;;8.03;;
18776;SDS011;9517;51.174;4.160;2023-05-07T08:28:26;16.87;;;7.83;;
18776;SDS011;9517;51.174;4.160;2023-05-07T08:30:53;18.80;;;9.30;;
18776;SDS011;9517;51.174;4.160;2023-05-07T08:33:21;18.13;;;9.03;;
18776;SDS011;9517;51.174;4.160;2023-05-07T08:35:48;19.83;;;9.20;;
18776;SDS011;9517;51.174;4.160;2023-05-07T08:38:17;21.40;;;9.70;;
18776;SDS011;9517;51.174;4.160;2023-05-07T08:40:44;18.40;;;9.10;;
18776;SDS011;9517;51.174;4.160;2023-05-07T08:43:12;22.37;;;9.93;;
18776;SDS011;9517;51.174;4.160;2023-05-07T08:45:39;21.70;;;8.80;;
18776;SDS011;9517;51.174;4.160;2023-05-07T08:48:08;17.20;;;6.93;;
18776;SDS011;9517;51.174;4.160;2023-05-07T08:50:40;23.87;;;6.80;;
18776;SDS011;9517;51.174;4.160;2023-05-07T08:53:07;20.03;;;7.03;;
18776;SDS011;9517;51.174;4.160;2023-05-07T08:55:36;14.27;;;5.47;;
18776;SDS011;9517;51.174;4.160;2023-05-07T08:58:03;17.70;;;6.50;;
18776;SDS011;9517;51.174;4.160;2023-05-07T09:00:30;16.70;;;6.37;;
18776;SDS011;9517;51.174;4.160;2023-05-07T09:02:58;16.03;;;6.23;;
18776;SDS011;9517;51.174;4.160;2023-05-07T09:05:27;14.03;;;6.17;;
18776;SDS011;9517;51.174;4.160;2023-05-07T09:07:54;21.83;;;7.57;;
18776;SDS011;9517;51.174;4.160;2023-05-07T09:10:21;17.47;;;7.47;;
18776;SDS011;9517;51.174;4.160;2023-05-07T09:12:50;16.87;;;8.17;;
18776;SDS011;9517;51.174;4.160;2023-05-07T09:15:17;21.70;;;8.43;;
18776;SDS011;9517;51.174;4.160;2023-05-07T09:17:44;16.17;;;7.53;;
18776;SDS011;9517;51.174;4.160;2023-05-07T09:20:12;17.70;;;8.10;;
18776;SDS011;9517;51.174;4.160;2023-05-07T09:22:39;17.17;;;7.70;;
18776;SDS011;9517;51.174;4.160;2023-05-07T09:25:06;15.53;;;8.00;;
18776;SDS011;9517;51.174;4.160;2023-05-07T09:27:34;14.63;;;6.77;;
18776;SDS011;9517;51.174;4.160;2023-05-07T09:30:04;18.63;;;8.07;;
18776;SDS011;9517;51.174;4.160;2023-05-07T09:32:34;16.23;;;7.87;;
18776;SDS011;9517;51.174;4.160;2023-05-07T09:35:03;16.23;;;6.93;;
18776;SDS011;9517;51.174;4.160;2023-05-07T09:37:31;18.27;;;6.90;;
18776;SDS011;9517;51.174;4.160;2023-05-07T09:39:58;17.67;;;6.53;;
18776;SDS011;9517;51.174;4.160;2023-05-07T09:42:26;19.43;;;6.70;;
18776;SDS011;9517;51.174;4.160;2023-05-07T09:44:53;19.10;;;6.93;;
18776;SDS011;9517;51.174;4.160;2023-05-07T09:47:23;17.53;;;6.73;;
18776;SDS011;9517;51.174;4.160;2023-05-07T09:49:52;19.17;;;7.33;;
18776;SDS011;9517;51.174;4.160;2023-05-07T09:52:23;16.37;;;6.93;;
18776;SDS011;9517;51.174;4.160;2023-05-07T09:54:53;20.07;;;7.30;;
18776;SDS011;9517;51.174;4.160;2023-05-07T09:57:24;17.10;;;7.03;;
18776;SDS011;9517;51.174;4.160;2023-05-07T09:59:53;17.30;;;7.60;;
18776;SDS011;9517;51.174;4.160;2023-05-07T10:02:24;14.53;;;6.97;;
18776;SDS011;9517;51.174;4.160;2023-05-07T10:04:53;15.33;;;7.37;;
18776;SDS011;9517;51.174;4.160;2023-05-07T10:07:21;18.40;;;7.70;;
18776;SDS011;9517;51.174;4.160;2023-05-07T10:09:53;15.60;;;7.83;;
18776;SDS011;9517;51.174;4.160;2023-05-07T10:12:27;19.40;;;7.60;;
18776;SDS011;9517;51.174;4.160;2023-05-07T10:14:55;17.23;;;8.17;;
18776;SDS011;9517;51.174;4.160;2023-05-07T10:17:24;16.67;;;7.70;;
18776;SDS011;9517;51.174;4.160;2023-05-07T10:19:51;16.20;;;7.03;;
18776;SDS011;9517;51.174;4.160;2023-05-07T10:22:20;17.03;;;6.90;;
18776;SDS011;9517;51.174;4.160;2023-05-07T10:24:48;17.07;;;7.73;;
18776;SDS011;9517;51.174;4.160;2023-05-07T10:27:19;15.40;;;7.50;;
18776;SDS011;9517;51.174;4.160;2023-05-07T10:30:21;19.13;;;8.23;;
18776;SDS011;9517;51.174;4.160;2023-05-07T10:32:51;15.30;;;7.77;;
18776;SDS011;9517;51.174;4.160;2023-05-07T10:35:23;16.40;;;6.63;;
18776;SDS011;9517;51.174;4.160;2023-05-07T10:37:52;15.17;;;7.50;;
18776;SDS011;9517;51.174;4.160;2023-05-07T10:40:20;17.40;;;7.30;;
18776;SDS011;9517;51.174;4.160;2023-05-07T10:42:54;18.73;;;8.00;;
18776;SDS011;9517;51.174;4.160;2023-05-07T10:45:22;16.03;;;6.90;;
18776;SDS011;9517;51.174;4.160;2023-05-07T10:48:07;18.67;;;6.60;;
18776;SDS011;9517;51.174;4.160;2023-05-07T10:50:36;14.53;;;5.00;;
18776;SDS011;9517;51.174;4.160;2023-05-07T10:53:23;13.17;;;5.30;;
18776;SDS011;9517;51.174;4.160;2023-05-07T10:58:56;12.17;;;4.50;;
18776;SDS011;9517;51.174;4.160;2023-05-07T11:01:50;10.77;;;4.50;;
18776;SDS011;9517;51.174;4.160;2023-05-07T11:04:20;9.93;;;4.37;;
18776;SDS011;9517;51.174;4.160;2023-05-07T11:09:59;13.70;;;3.17;;
18776;SDS011;9517;51.174;4.160;2023-05-07T11:12:48;12.10;;;3.43;;
18776;SDS011;9517;51.174;4.160;2023-05-07T11:15:43;11.40;;;4.03;;
18776;SDS011;9517;51.174;4.160;2023-05-07T11:18:11;11.23;;;3.73;;
18776;SDS011;9517;51.174;4.160;2023-05-07T11:20:51;15.07;;;4.00;;
18776;SDS011;9517;51.174;4.160;2023-05-07T11:26:27;13.10;;;3.53;;
18776;SDS011;9517;51.174;4.160;2023-05-07T11:28:56;11.97;;;3.93;;
18776;SDS011;9517;51.174;4.160;2023-05-07T11:31:26;8.63;;;2.93;;
18776;SDS011;9517;51.174;4.160;2023-05-07T11:33:55;10.80;;;2.97;;
18776;SDS011;9517;51.174;4.160;2023-05-07T11:36:24;10.30;;;3.07;;
18776;SDS011;9517;51.174;4.160;2023-05-07T11:38:52;13.00;;;3.80;;
18776;SDS011;9517;51.174;4.160;2023-05-07T11:41:19;10.37;;;3.43;;
18776;SDS011;9517;51.174;4.160;2023-05-07T11:43:53;9.17;;;3.07;;
18776;SDS011;9517;51.174;4.160;2023-05-07T11:46:24;10.80;;;3.37;;
18776;SDS011;9517;51.174;4.160;2023-05-07T11:48:52;10.10;;;3.60;;
18776;SDS011;9517;51.174;4.160;2023-05-07T11:51:20;7.53;;;2.90;;
18776;SDS011;9517;51.174;4.160;2023-05-07T11:53:50;8.83;;;3.03;;
18776;SDS011;9517;51.174;4.160;2023-05-07T11:56:18;9.33;;;3.40;;
18776;SDS011;9517;51.174;4.160;2023-05-07T11:58:46;12.83;;;3.70;;
18776;SDS011;9517;51.174;4.160;2023-05-07T12:01:15;9.07;;;3.17;;
18776;SDS011;9517;51.174;4.160;2023-05-07T12:03:45;9.13;;;3.17;;
18776;SDS011;9517;51.174;4.160;2023-05-07T12:06:13;9.67;;;3.00;;
18776;SDS011;9517;51.174;4.160;2023-05-07T12:08:41;11.37;;;3.70;;
18776;SDS011;9517;51.174;4.160;2023-05-07T12:11:12;10.23;;;3.40;;
18776;SDS011;9517;51.174;4.160;2023-05-07T12:13:42;8.40;;;2.67;;
18776;SDS011;9517;51.174;4.160;2023-05-07T12:16:09;10.77;;;3.47;;
18776;SDS011;9517;51.174;4.160;2023-05-07T12:18:37;11.23;;;3.43;;
18776;SDS011;9517;51.174;4.160;2023-05-07T12:21:05;8.80;;;2.40;;
18776;SDS011;9517;51.174;4.160;2023-05-07T12:23:33;9.70;;;2.80;;
18776;SDS011;9517;51.174;4.160;2023-05-07T12:26:02;8.10;;;1.97;;
18776;SDS011;9517;51.174;4.160;2023-05-07T12:28:31;10.20;;;2.60;;
18776;SDS011;9517;51.174;4.160;2023-05-07T12:31:03;11.57;;;2.60;;
18776;SDS011;9517;51.174;4.160;2023-05-07T12:33:31;9.77;;;2.20;;
18776;SDS011;9517;51.174;4.160;2023-05-07T12:36:02;7.80;;;2.00;;
18776;SDS011;9517;51.174;4.160;2023-05-07T12:38:34;9.40;;;2.70;;
18776;SDS011;9517;51.174;4.160;2023-05-07T12:41:02;11.10;;;2.83;;
18776;SDS011;9517;51.174;4.160;2023-05-07T12:43:31;8.73;;;2.80;;
18776;SDS011;9517;51.174;4.160;2023-05-07T12:45:59;10.70;;;2.60;;
18776;SDS011;9517;51.174;4.160;2023-05-07T12:48:28;9.50;;;2.37;;
18776;SDS011;9517;51.174;4.160;2023-05-07T12:50:55;9.83;;;2.43;;
18776;SDS011;9517;51.174;4.160;2023-05-07T12:53:24;8.20;;;2.40;;
18776;SDS011;9517;51.174;4.160;2023-05-07T12:55:53;8.57;;;2.50;;
18776;SDS011;9517;51.174;4.160;2023-05-07T12:58:25;14.55;;;2.60;;
18776;SDS011;9517;51.174;4.160;2023-05-07T13:00:56;10.87;;;2.43;;
18776;SDS011;9517;51.174;4.160;2023-05-07T13:03:25;6.73;;;2.03;;
18776;SDS011;9517;51.174;4.160;2023-05-07T13:05:54;10.05;;;2.83;;
18776;SDS011;9517;51.174;4.160;2023-05-07T13:08:28;8.30;;;2.30;;
18776;SDS011;9517;51.174;4.160;2023-05-07T13:10:57;7.55;;;2.60;;
18776;SDS011;9517;51.174;4.160;2023-05-07T13:13:28;11.03;;;2.80;;
18776;SDS011;9517;51.174;4.160;2023-05-07T13:15:57;6.97;;;2.63;;
18776;SDS011;9517;51.174;4.160;2023-05-07T13:18:24;6.50;;;2.20;;
18776;SDS011;9517;51.174;4.160;2023-05-07T13:20:52;8.60;;;2.57;;
18776;SDS011;9517;51.174;4.160;2023-05-07T13:23:19;10.33;;;2.90;;
18776;SDS011;9517;51.174;4.160;2023-05-07T13:25:47;9.57;;;2.10;;
18776;SDS011;9517;51.174;4.160;2023-05-07T13:28:15;8.43;;;2.63;;
18776;SDS011;9517;51.174;4.160;2023-05-07T13:30:42;7.87;;;2.60;;
18776;SDS011;9517;51.174;4.160;2023-05-07T13:33:11;8.10;;;2.90;;
18776;SDS011;9517;51.174;4.160;2023-05-07T13:35:39;12.73;;;3.43;;
18776;SDS011;9517;51.174;4.160;2023-05-07T13:38:06;11.13;;;3.37;;
18776;SDS011;9517;51.174;4.160;2023-05-07T13:40:34;9.43;;;3.60;;
18776;SDS011;9517;51.174;4.160;2023-05-07T13:43:01;10.50;;;4.03;;
18776;SDS011;9517;51.174;4.160;2023-05-07T13:45:28;9.87;;;3.90;;
18776;SDS011;9517;51.174;4.160;2023-05-07T13:47:56;10.20;;;3.27;;
18776;SDS011;9517;51.174;4.160;2023-05-07T13:50:25;9.57;;;3.27;;
18776;SDS011;9517;51.174;4.160;2023-05-07T13:52:54;9.53;;;3.73;;
18776;SDS011;9517;51.174;4.160;2023-05-07T13:55:23;8.83;;;3.30;;
18776;SDS011;9517;51.174;4.160;2023-05-07T13:57:54;8.10;;;3.17;;
18776;SDS011;9517;51.174;4.160;2023-05-07T14:00:23;8.47;;;3.13;;
18776;SDS011;9517;51.174;4.160;2023-05-07T14:02:50;8.87;;;3.20;;
18776;SDS011;9517;51.174;4.160;2023-05-07T14:05:17;8.20;;;3.23;;
18776;SDS011;9517;51.174;4.160;2023-05-07T14:07:46;10.23;;;2.93;;
18776;SDS011;9517;51.174;4.160;2023-05-07T14:10:16;8.90;;;2.30;;
18776;SDS011;9517;51.174;4.160;2023-05-07T14:12:44;6.83;;;2.40;;
18776;SDS011;9517;51.174;4.160;2023-05-07T14:15:11;6.97;;;2.50;;
18776;SDS011;9517;51.174;4.160;2023-05-07T14:17:39;6.03;;;2.10;;
18776;SDS011;9517;51.174;4.160;2023-05-07T14:20:07;9.87;;;2.53;;
18776;SDS011;9517;51.174;4.160;2023-05-07T14:22:35;5.80;;;1.90;;
18776;SDS011;9517;51.174;4.160;2023-05-07T14:25:05;7.23;;;2.30;;
18776;SDS011;9517;51.174;4.160;2023-05-07T14:27:34;9.43;;;2.33;;
18776;SDS011;9517;51.174;4.160;2023-05-07T14:30:01;6.40;;;2.13;;
18776;SDS011;9517;51.174;4.160;2023-05-07T14:32:29;6.00;;;2.40;;
18776;SDS011;9517;51.174;4.160;2023-05-07T14:34:56;6.47;;;2.10;;
18776;SDS011;9517;51.174;4.160;2023-05-07T14:37:23;6.23;;;2.60;;
18776;SDS011;9517;51.174;4.160;2023-05-07T14:39:50;5.67;;;2.13;;
18776;SDS011;9517;51.174;4.160;2023-05-07T14:42:19;7.43;;;2.70;;
18776;SDS011;9517;51.174;4.160;2023-05-07T14:44:46;8.63;;;2.73;;
18776;SDS011;9517;51.174;4.160;2023-05-07T14:47:13;6.63;;;2.40;;
18776;SDS011;9517;51.174;4.160;2023-05-07T14:49:41;9.00;;;2.83;;
18776;SDS011;9517;51.174;4.160;2023-05-07T14:52:08;6.30;;;2.53;;
18776;SDS011;9517;51.174;4.160;2023-05-07T14:54:36;7.97;;;2.77;;
18776;SDS011;9517;51.174;4.160;2023-05-07T14:57:04;7.40;;;2.77;;
18776;SDS011;9517;51.174;4.160;2023-05-07T14:59:33;6.97;;;2.40;;
18776;SDS011;9517;51.174;4.160;2023-05-07T15:02:00;9.20;;;2.07;;
18776;SDS011;9517;51.174;4.160;2023-05-07T15:04:27;8.20;;;2.20;;
18776;SDS011;9517;51.174;4.160;2023-05-07T15:06:54;5.35;;;2.10;;